createdAt,value
2018-08-03T00:00:22.196Z,68.70
2018-08-03T00:02:50.202Z,68.70
2018-08-03T00:05:17.908Z,68.70
2018-08-03T00:07:45.669Z,68.80
2018-08-03T00:10:13.642Z,69.10
2018-08-03T00:12:41.405Z,68.90
2018-08-03T00:15:09.102Z,68.90
2018-08-03T00:17:36.969Z,69.00
2018-08-03T00:20:05.787Z,69.00
2018-08-03T00:22:33.854Z,68.90
2018-08-03T00:29:57.560Z,68.80
2018-08-03T00:37:21.231Z,68.80
2018-08-03T00:39:48.980Z,68.80
2018-08-03T00:42:16.651Z,68.90
2018-08-03T00:44:44.523Z,68.90
2018-08-03T00:47:12.372Z,69.00
2018-08-03T00:52:08.039Z,69.20
2018-08-03T00:54:35.703Z,69.40
2018-08-03T00:57:03.372Z,69.40
2018-08-03T00:59:31.328Z,69.50
2018-08-03T01:01:58.989Z,69.50
2018-08-03T01:04:26.714Z,69.60
2018-08-03T01:07:01.497Z,69.70
2018-08-03T01:09:29.251Z,69.70
2018-08-03T01:11:56.888Z,69.80
2018-08-03T01:14:24.813Z,69.80
2018-08-03T01:16:52.620Z,69.80
2018-08-03T01:19:20.269Z,69.80
2018-08-03T01:21:47.970Z,69.80
2018-08-03T01:24:15.811Z,69.90
2018-08-03T01:26:43.553Z,69.80
2018-08-03T01:29:11.268Z,69.70
2018-08-03T01:31:39.045Z,69.70
2018-08-03T01:34:06.731Z,69.70
2018-08-03T01:36:34.548Z,69.70
2018-08-03T01:39:02.316Z,70.60
2018-08-03T01:41:29.973Z,69.90
2018-08-03T01:43:57.955Z,69.90
2018-08-03T01:46:25.607Z,69.90
2018-08-03T01:48:53.307Z,70.00
2018-08-03T01:51:21.158Z,70.00
2018-08-03T01:53:48.856Z,70.00
2018-08-03T01:56:16.599Z,70.00
2018-08-03T01:58:44.441Z,69.90
2018-08-03T02:01:12.133Z,70.00
2018-08-03T02:03:39.946Z,70.00
2018-08-03T02:06:07.672Z,69.90
2018-08-03T02:08:35.348Z,69.90
2018-08-03T02:11:03.575Z,70.00
2018-08-03T02:13:31.417Z,70.00
2018-08-03T02:15:59.232Z,70.00
2018-08-03T02:20:57.140Z,69.80
2018-08-03T02:23:24.817Z,69.80
2018-08-03T02:25:52.504Z,70.50
2018-08-03T02:28:20.395Z,69.80
2018-08-03T02:30:48.788Z,69.80
2018-08-03T02:33:16.486Z,69.80
2018-08-03T02:35:44.157Z,69.80
2018-08-03T02:38:11.993Z,69.80
2018-08-03T02:40:39.687Z,69.80
2018-08-03T02:45:35.450Z,69.80
2018-08-03T02:48:03.254Z,69.80
2018-08-03T02:50:31.301Z,69.80
2018-08-03T02:52:58.979Z,69.90
2018-08-03T02:55:26.674Z,70.00
2018-08-03T02:57:54.668Z,70.00
2018-08-03T03:00:22.403Z,70.00
2018-08-03T03:02:50.103Z,70.00
2018-08-03T03:05:18.065Z,70.00
2018-08-03T03:07:45.834Z,70.00
2018-08-03T03:10:13.564Z,69.90
2018-08-03T03:12:41.667Z,69.90
2018-08-03T03:15:09.437Z,69.90
2018-08-03T03:17:37.167Z,69.90
2018-08-03T03:22:34.724Z,70.00
2018-08-03T03:25:08.105Z,70.00
2018-08-03T03:27:35.804Z,70.00
2018-08-03T03:32:32.836Z,70.00
2018-08-03T03:35:00.598Z,70.10
2018-08-03T03:37:28.270Z,70.10
2018-08-03T03:39:56.155Z,70.10
2018-08-03T03:42:23.871Z,70.10
2018-08-03T03:44:51.878Z,70.20
2018-08-03T03:47:19.562Z,70.30
2018-08-03T03:49:47.328Z,70.30
2018-08-03T03:52:15.138Z,70.30
2018-08-03T03:57:10.546Z,70.40
2018-08-03T04:02:06.592Z,70.60
2018-08-03T04:04:34.250Z,70.60
2018-08-03T04:07:01.972Z,70.70
2018-08-03T04:09:29.673Z,70.70
2018-08-03T04:11:57.387Z,70.80
2018-08-03T04:14:25.527Z,70.90
2018-08-03T04:16:53.259Z,70.90
2018-08-03T04:19:20.991Z,70.90
2018-08-03T04:30:37.892Z,70.90
2018-08-03T04:33:05.720Z,71.60
2018-08-03T04:38:01.263Z,71.30
2018-08-03T04:40:28.992Z,71.30
2018-08-03T04:42:57.511Z,71.30
2018-08-03T04:45:25.190Z,71.30
2018-08-03T04:47:52.832Z,71.30
2018-08-03T04:50:20.792Z,71.30
2018-08-03T04:52:48.524Z,71.30
2018-08-03T04:55:16.842Z,71.10
2018-08-03T04:57:44.492Z,71.20
2018-08-03T05:00:12.247Z,71.00
2018-08-03T05:02:40.222Z,71.60
2018-08-03T05:05:08.714Z,70.90
2018-08-03T05:07:36.544Z,70.80
2018-08-03T05:10:04.936Z,70.70
2018-08-03T05:12:32.702Z,70.70
2018-08-03T05:15:00.446Z,70.70
2018-08-03T05:17:28.685Z,70.70
2018-08-03T05:19:56.408Z,69.90
2018-08-03T05:22:24.147Z,70.60
2018-08-03T05:24:52.691Z,70.70
2018-08-03T05:27:20.424Z,70.60
2018-08-03T05:29:48.136Z,70.50
2018-08-03T05:32:16.198Z,69.80
2018-08-03T05:34:43.907Z,70.50
2018-08-03T05:37:11.557Z,70.40
2018-08-03T05:39:39.538Z,70.30
2018-08-03T05:42:07.306Z,70.20
2018-08-03T05:44:36.128Z,70.10
2018-08-03T05:47:04.268Z,70.80
2018-08-03T05:49:31.932Z,69.80
2018-08-03T05:51:59.895Z,69.70
2018-08-03T05:54:27.620Z,69.50
2018-08-03T05:56:55.287Z,69.10
2018-08-03T05:59:23.208Z,69.00
2018-08-03T06:01:50.952Z,68.60
2018-08-03T06:04:18.662Z,68.30
2018-08-03T06:06:46.440Z,67.90
2018-08-03T06:09:14.108Z,67.50
2018-08-03T06:11:41.796Z,67.00
2018-08-03T06:16:37.432Z,65.80
2018-08-03T06:19:05.527Z,65.00
2018-08-03T06:24:01.650Z,64.00
2018-08-03T06:26:29.663Z,63.40
2018-08-03T06:28:57.440Z,62.90
2018-08-03T06:31:25.451Z,62.20
2018-08-03T06:33:53.192Z,61.50
2018-08-03T06:36:21.085Z,60.60
2018-08-03T06:38:48.741Z,60.00
2018-08-03T06:41:17.425Z,59.70
2018-08-03T06:43:45.324Z,59.20
2018-08-03T06:46:13.037Z,58.60
2018-08-03T06:51:14.640Z,57.90
2018-08-03T06:53:42.737Z,57.20
2018-08-03T06:56:10.421Z,56.60
2018-08-03T06:58:38.159Z,56.00
2018-08-03T07:01:06.361Z,55.30
2018-08-03T07:03:34.054Z,54.50
2018-08-03T07:06:01.750Z,54.10
2018-08-03T07:10:57.440Z,53.50
2018-08-03T07:13:25.116Z,53.10
2018-08-03T07:15:53.181Z,52.60
2018-08-03T07:18:20.881Z,52.30
2018-08-03T07:23:16.724Z,51.90
2018-08-03T07:25:44.315Z,52.00
2018-08-03T07:28:13.890Z,51.90
2018-08-03T07:30:41.917Z,51.70
2018-08-03T07:33:09.924Z,51.30
2018-08-03T07:35:37.650Z,50.90
2018-08-03T07:38:05.356Z,51.10
2018-08-03T07:40:33.411Z,51.70
2018-08-03T07:43:01.110Z,52.30
2018-08-03T07:45:28.863Z,52.50
2018-08-03T07:47:56.837Z,52.40
2018-08-03T07:50:24.679Z,52.00
2018-08-03T07:52:52.531Z,51.40
2018-08-03T07:57:48.121Z,49.50
2018-08-03T08:00:15.851Z,49.10
2018-08-03T08:02:43.981Z,49.00
2018-08-03T08:05:11.654Z,48.80
2018-08-03T08:07:39.324Z,48.90
2018-08-03T08:10:07.145Z,48.90
2018-08-03T08:12:34.808Z,48.90
2018-08-03T08:15:02.549Z,48.70
2018-08-03T08:17:30.309Z,48.50
2018-08-03T08:19:57.988Z,48.40
2018-08-03T08:22:25.660Z,48.30
2018-08-03T08:24:53.471Z,48.10
2018-08-03T08:27:21.133Z,47.70
2018-08-03T08:29:50.615Z,47.30
2018-08-03T08:32:18.476Z,46.90
2018-08-03T08:34:46.107Z,46.50
2018-08-03T08:37:14.066Z,46.30
2018-08-03T08:39:41.764Z,46.30
2018-08-03T08:42:09.404Z,46.20
2018-08-03T08:44:37.168Z,46.30
2018-08-03T08:47:11.710Z,46.60
2018-08-03T08:49:39.451Z,46.80
2018-08-03T08:52:06.789Z,46.80
2018-08-03T08:57:02.458Z,46.30
2018-08-03T08:59:30.084Z,46.10
2018-08-03T09:01:58.104Z,45.80
2018-08-03T09:04:25.757Z,45.50
2018-08-03T09:06:53.561Z,44.80
2018-08-03T09:09:21.968Z,44.40
2018-08-03T09:11:49.688Z,43.90
2018-08-03T09:14:17.398Z,43.10
2018-08-03T09:16:45.539Z,42.20
2018-08-03T09:19:13.230Z,41.40
2018-08-03T09:21:40.928Z,40.80
2018-08-03T09:24:09.058Z,40.20
2018-08-03T09:26:36.677Z,39.90
2018-08-03T09:31:32.258Z,39.10
2018-08-03T09:33:59.902Z,38.70
2018-08-03T09:38:56.096Z,37.40
2018-08-03T09:41:23.804Z,37.00
2018-08-03T09:46:19.483Z,36.10
2018-08-03T09:48:47.277Z,35.90
2018-08-03T09:53:43.136Z,35.40
2018-08-03T09:56:10.818Z,34.80
2018-08-03T09:58:38.446Z,34.20
2018-08-03T10:01:12.336Z,33.80
2018-08-03T10:03:40.807Z,33.50
2018-08-03T10:08:37.099Z,33.00
2018-08-03T10:11:04.795Z,32.80
2018-08-03T10:13:32.575Z,33.10
2018-08-03T10:16:00.250Z,32.20
2018-08-03T10:18:27.989Z,32.10
2018-08-03T10:20:56.076Z,31.80
2018-08-03T10:23:23.911Z,31.50
2018-08-03T10:25:51.592Z,31.10
2018-08-03T10:28:19.525Z,31.10
2018-08-03T10:33:15.282Z,30.00
2018-08-03T10:35:43.415Z,30.00
2018-08-03T10:38:11.442Z,30.00
2018-08-03T10:40:39.128Z,30.00
2018-08-03T10:43:07.253Z,30.00
2018-08-03T10:45:35.031Z,30.00
2018-08-03T10:50:30.595Z,30.00
2018-08-03T10:52:58.257Z,30.20
2018-08-03T10:55:26.305Z,30.60
2018-08-03T10:57:53.979Z,31.00
2018-08-03T11:02:57.294Z,31.20
2018-08-03T11:05:26.279Z,31.20
2018-08-03T11:07:54.321Z,31.20
2018-08-03T11:10:22.001Z,31.40
2018-08-03T11:12:50.712Z,31.30
2018-08-03T11:15:18.781Z,31.30
2018-08-03T11:22:43.677Z,31.30
2018-08-03T11:25:11.348Z,31.00
2018-08-03T11:27:39.241Z,30.90
2018-08-03T11:30:08.229Z,30.60
2018-08-03T11:32:36.273Z,30.00
2018-08-03T11:35:04.279Z,29.90
2018-08-03T11:37:31.937Z,29.50
2018-08-03T11:39:59.570Z,29.40
2018-08-03T11:42:27.477Z,29.10
2018-08-03T11:44:55.183Z,29.00
2018-08-03T11:47:22.804Z,29.00
2018-08-03T11:49:50.484Z,29.20
2018-08-03T11:52:18.126Z,29.60
2018-08-03T11:54:45.785Z,29.80
2018-08-03T11:57:13.747Z,29.60
2018-08-03T12:02:09.305Z,29.90
2018-08-03T12:04:37.096Z,29.80
2018-08-03T12:07:08.596Z,29.80
2018-08-03T12:09:36.311Z,29.90
2018-08-03T12:12:04.080Z,30.00
2018-08-03T12:14:31.776Z,29.90
2018-08-03T12:16:59.714Z,29.90
2018-08-03T12:19:27.334Z,30.00
2018-08-03T12:21:55.034Z,30.10
2018-08-03T12:26:50.849Z,30.20
2018-08-03T12:29:18.550Z,30.20
2018-08-03T12:31:46.443Z,30.30
2018-08-03T12:34:14.112Z,30.40
2018-08-03T12:36:41.785Z,30.50
2018-08-03T12:39:10.669Z,30.50
2018-08-03T12:41:38.598Z,30.40
2018-08-03T12:44:06.576Z,30.20
2018-08-03T12:46:34.496Z,29.80
2018-08-03T12:49:02.699Z,29.50
2018-08-03T12:51:30.398Z,29.30
2018-08-03T12:53:58.064Z,29.20
2018-08-03T12:58:53.388Z,29.10
2018-08-03T13:01:21.387Z,29.00
2018-08-03T13:08:44.894Z,29.90
2018-08-03T13:11:12.510Z,29.60
2018-08-03T13:13:40.472Z,29.70
2018-08-03T13:16:08.140Z,29.70
2018-08-03T13:18:36.467Z,29.70
2018-08-03T13:21:32.820Z,30.40
2018-08-03T13:24:08.937Z,30.00
2018-08-03T13:26:52.673Z,30.10
2018-08-03T13:29:20.315Z,30.20
2018-08-03T13:31:47.941Z,30.20
2018-08-03T13:37:08.051Z,30.00
2018-08-03T13:39:35.988Z,30.20
2018-08-03T13:42:07.858Z,30.00
2018-08-03T13:47:07.524Z,29.80
2018-08-03T13:49:35.140Z,29.80
2018-08-03T13:52:15.724Z,29.70
2018-08-03T13:57:11.117Z,29.80
2018-08-03T13:59:39.412Z,29.80
2018-08-03T14:02:26.284Z,29.80
2018-08-03T14:04:54.685Z,29.80
2018-08-03T14:09:51.191Z,29.70
2018-08-03T14:14:46.568Z,29.80
2018-08-03T14:17:14.397Z,29.30
2018-08-03T14:19:48.917Z,29.20
2018-08-03T14:22:16.762Z,29.10
2018-08-03T14:27:12.316Z,29.40
2018-08-03T14:29:40.097Z,29.40
2018-08-03T14:32:08.006Z,29.50
2018-08-03T14:34:35.643Z,29.50
2018-08-03T14:37:03.331Z,29.40
2018-08-03T14:41:58.711Z,29.60
2018-08-03T14:44:26.378Z,29.50
2018-08-03T14:46:54.304Z,29.90
2018-08-03T14:49:21.967Z,29.20
2018-08-03T14:54:17.598Z,29.00
2018-08-03T14:56:45.343Z,29.00
2018-08-03T14:59:13.138Z,29.10
2018-08-03T15:01:41.128Z,29.00
2018-08-03T15:04:08.801Z,29.20
2018-08-03T15:06:36.528Z,29.20
2018-08-03T15:09:07.617Z,29.30
2018-08-03T15:11:35.231Z,29.40
2018-08-03T15:14:03.122Z,29.50
2018-08-03T15:16:31.125Z,29.50
2018-08-03T15:18:58.750Z,29.40
2018-08-03T15:21:26.456Z,29.40
2018-08-03T15:23:54.255Z,29.50
2018-08-03T15:26:21.851Z,29.40
2018-08-03T15:28:49.915Z,29.40
2018-08-03T15:31:17.491Z,29.50
2018-08-03T15:33:45.209Z,29.60
2018-08-03T15:36:13.200Z,29.60
2018-08-03T15:38:41.016Z,29.50
2018-08-03T15:41:08.647Z,29.40
2018-08-03T15:43:36.313Z,29.50
2018-08-03T15:46:34.700Z,29.60
2018-08-03T15:49:25.692Z,29.60
2018-08-03T15:51:53.656Z,29.80
2018-08-03T15:54:31.430Z,29.90
2018-08-03T15:57:38.217Z,30.00
2018-08-03T16:00:13.133Z,30.10
2018-08-03T16:02:41.608Z,30.20
2018-08-03T16:05:10.315Z,30.30
2018-08-03T16:07:51.907Z,30.30
2018-08-03T16:10:44.965Z,30.40
2018-08-03T16:13:13.434Z,30.30
2018-08-03T16:15:54.188Z,30.30
2018-08-03T16:19:00.912Z,30.20
2018-08-03T16:21:37.018Z,30.20
2018-08-03T16:24:05.390Z,30.00
2018-08-03T16:26:33.263Z,30.00
2018-08-03T16:29:01.040Z,30.00
2018-08-03T16:31:28.688Z,30.00
2018-08-03T16:33:57.160Z,30.00
2018-08-03T16:36:24.827Z,30.00
2018-08-03T16:38:52.539Z,30.00
2018-08-03T16:41:20.232Z,30.00
2018-08-03T16:43:47.888Z,30.00
2018-08-03T16:46:15.611Z,29.90
2018-08-03T16:48:43.276Z,29.90
2018-08-03T16:51:10.849Z,29.90
2018-08-03T16:53:38.560Z,29.90
2018-08-03T16:56:06.617Z,29.90
2018-08-03T16:58:34.264Z,29.90
2018-08-03T17:01:07.888Z,30.00
2018-08-03T17:03:46.564Z,30.00
2018-08-03T17:06:16.682Z,30.60
2018-08-03T17:08:45.412Z,30.00
2018-08-03T17:11:51.687Z,30.00
2018-08-03T17:14:26.940Z,30.10
2018-08-03T17:16:56.872Z,30.20
2018-08-03T17:19:27.465Z,30.20
2018-08-03T17:21:55.276Z,30.20
2018-08-03T17:24:22.889Z,30.30
2018-08-03T17:26:50.568Z,30.40
2018-08-03T17:29:18.704Z,30.40
2018-08-03T17:31:46.339Z,30.50
2018-08-03T17:34:13.982Z,30.60
2018-08-03T17:36:41.925Z,30.60
2018-08-03T17:39:10.557Z,30.70
2018-08-03T17:41:38.239Z,30.70
2018-08-03T17:44:08.331Z,30.80
2018-08-03T17:46:50.292Z,30.80
2018-08-03T17:49:18.053Z,30.80
2018-08-03T17:51:45.826Z,30.80
2018-08-03T17:54:13.460Z,30.90
2018-08-03T17:59:09.357Z,31.00
2018-08-03T18:01:37.027Z,31.00
2018-08-03T18:04:04.696Z,31.10
2018-08-03T18:06:32.655Z,31.20
2018-08-03T18:09:00.311Z,31.30
2018-08-03T18:11:28.029Z,31.50
2018-08-03T18:13:55.788Z,31.60
2018-08-03T18:16:23.458Z,31.70
2018-08-03T18:18:51.272Z,31.80
2018-08-03T18:21:19.290Z,32.00
2018-08-03T18:23:46.936Z,32.00
2018-08-03T18:26:29.036Z,32.10
2018-08-03T18:28:57.564Z,32.20
2018-08-03T18:31:25.340Z,32.30
2018-08-03T18:33:53.368Z,32.30
2018-08-03T18:36:20.973Z,32.40
2018-08-03T18:38:48.683Z,32.40
2018-08-03T18:41:16.613Z,32.50
2018-08-03T18:43:44.301Z,32.50
2018-08-03T18:46:12.004Z,32.50
2018-08-03T18:48:39.888Z,32.60
2018-08-03T18:51:07.579Z,32.70
2018-08-03T18:53:35.294Z,32.80
2018-08-03T18:58:30.898Z,33.10
2018-08-03T19:00:58.584Z,33.10
2018-08-03T19:03:26.526Z,33.10
2018-08-03T19:05:54.690Z,33.10
2018-08-03T19:08:22.355Z,33.10
2018-08-03T19:10:50.330Z,33.10
2018-08-03T19:13:18.020Z,33.20
2018-08-03T19:15:46.152Z,33.40
2018-08-03T19:18:14.243Z,33.70
2018-08-03T19:20:41.889Z,33.80
2018-08-03T19:23:09.543Z,33.90
2018-08-03T19:25:37.764Z,34.00
2018-08-03T19:28:05.403Z,34.30
2018-08-03T19:30:33.002Z,34.30
2018-08-03T19:33:01.384Z,34.50
2018-08-03T19:35:29.132Z,34.60
2018-08-03T19:37:56.900Z,34.80
2018-08-03T19:40:24.784Z,34.90
2018-08-03T19:42:52.497Z,35.00
2018-08-03T19:45:20.136Z,35.20
2018-08-03T19:47:55.779Z,35.30
2018-08-03T19:50:38.304Z,35.50
2018-08-03T19:55:47.289Z,35.80
2018-08-03T20:00:42.843Z,36.00
2018-08-03T20:03:11.539Z,36.10
2018-08-03T20:05:39.425Z,36.30
2018-08-03T20:08:07.227Z,36.40
2018-08-03T20:10:34.953Z,36.50
2018-08-03T20:13:02.546Z,36.70
2018-08-03T20:15:30.731Z,36.80
2018-08-03T20:17:58.452Z,36.90
2018-08-03T20:20:26.128Z,37.00
2018-08-03T20:22:54.010Z,37.20
2018-08-03T20:25:21.981Z,37.30
2018-08-03T20:27:49.672Z,37.40
2018-08-03T20:30:17.387Z,37.60
2018-08-03T20:35:12.937Z,38.10
2018-08-03T20:37:40.559Z,38.20
2018-08-03T20:42:37.176Z,38.50
2018-08-03T20:45:05.291Z,38.70
2018-08-03T20:47:33.225Z,38.80
2018-08-03T20:50:01.057Z,39.00
2018-08-03T20:52:28.689Z,39.20
2018-08-03T20:54:56.326Z,39.30
2018-08-03T20:57:24.188Z,39.60
2018-08-03T20:59:51.843Z,39.70
2018-08-03T21:04:47.228Z,40.10
2018-08-03T21:07:14.905Z,40.20
2018-08-03T21:09:42.662Z,40.40
2018-08-03T21:12:10.280Z,40.60
2018-08-03T21:14:39.611Z,40.70
2018-08-03T21:17:07.324Z,40.80
2018-08-03T21:19:34.759Z,40.70
2018-08-03T21:22:03.387Z,41.00
2018-08-03T21:24:31.052Z,41.20
2018-08-03T21:26:58.780Z,41.40
2018-08-03T21:29:26.712Z,41.50
2018-08-03T21:31:54.348Z,41.50
2018-08-03T21:34:22.036Z,41.50
2018-08-03T21:36:49.799Z,41.70
2018-08-03T21:39:17.419Z,41.90
2018-08-03T21:41:45.122Z,42.00
2018-08-03T21:44:12.915Z,41.60
2018-08-03T21:46:40.556Z,42.00
2018-08-03T21:49:08.249Z,42.20
2018-08-03T21:51:36.191Z,42.40
2018-08-03T21:54:04.364Z,42.50
2018-08-03T21:56:32.072Z,42.50
2018-08-03T21:58:59.748Z,42.70
2018-08-03T22:01:27.717Z,42.70
2018-08-03T22:03:55.345Z,42.80
2018-08-03T22:06:23.040Z,42.90
2018-08-03T22:08:50.760Z,42.70
2018-08-03T22:11:18.438Z,42.80
2018-08-03T22:13:46.390Z,42.50
2018-08-03T22:16:15.029Z,42.40
2018-08-03T22:21:10.920Z,42.20
2018-08-03T22:23:38.643Z,42.00
2018-08-03T22:26:06.800Z,41.40
2018-08-03T22:28:34.688Z,41.40
2018-08-03T22:31:02.372Z,41.90
2018-08-03T22:33:30.044Z,41.90
2018-08-03T22:38:25.804Z,42.50
2018-08-03T22:40:53.530Z,42.70
2018-08-03T22:43:21.480Z,42.50
2018-08-03T22:45:49.210Z,42.70
2018-08-03T22:50:44.669Z,42.10
2018-08-03T22:53:12.328Z,41.70
2018-08-03T22:55:39.981Z,41.80
2018-08-03T22:58:14.742Z,42.10
2018-08-03T23:00:42.459Z,42.60
2018-08-03T23:03:10.163Z,43.40
2018-08-03T23:05:38.250Z,42.90
2018-08-03T23:08:05.949Z,43.00
2018-08-03T23:10:33.652Z,43.00
2018-08-03T23:15:26.700Z,43.00
2018-08-03T23:17:56.541Z,42.50
2018-08-03T23:22:52.038Z,42.10
2018-08-03T23:25:19.904Z,42.20
2018-08-03T23:27:47.595Z,42.40
2018-08-03T23:30:15.534Z,42.30
2018-08-03T23:32:43.198Z,42.30
2018-08-03T23:35:10.871Z,42.40
2018-08-03T23:37:38.848Z,42.40
2018-08-03T23:40:06.593Z,42.40
2018-08-03T23:42:35.096Z,42.40
2018-08-03T23:45:02.969Z,42.60
2018-08-03T23:47:30.756Z,42.80
2018-08-03T23:49:58.563Z,42.80
2018-08-03T23:52:26.184Z,42.90
2018-08-03T23:54:54.724Z,42.90
2018-08-03T23:57:22.412Z,43.00
2018-08-03T23:59:50.044Z,42.60
